sensor_id;sensor_type;location;lat;lon;timestamp;pressure;altitude;pressure_sealevel;temperature
69597;BMP180;56802;51.184;-115.558;2022-08-05T00:00:18;86018.80;;;
69597;BMP180;56802;51.184;-115.558;2022-08-05T00:02:48;86025.00;;;
69597;BMP180;56802;51.184;-115.558;2022-08-05T00:05:20;86030.60;;;
69597;BMP180;56802;51.184;-115.558;2022-08-05T00:08:10;86044.60;;;
69597;BMP180;56802;51.184;-115.558;2022-08-05T00:11:01;86050.00;;;
69597;BMP180;56802;51.184;-115.558;2022-08-05T00:13:46;86055.40;;;
69597;BMP180;56802;51.184;-115.558;2022-08-05T00:16:20;86066.00;;;
69597;BMP180;56802;51.184;-115.558;2022-08-05T00:19:03;86062.20;;;
69597;BMP180;56802;51.184;-115.558;2022-08-05T00:21:33;86072.80;;;
69597;BMP180;56802;51.184;-115.558;2022-08-05T00:24:03;86090.60;;;
69597;BMP180;56802;51.184;-115.558;2022-08-05T00:26:38;86102.40;;;
69597;BMP180;56802;51.184;-115.558;2022-08-05T00:29:18;86118.00;;;
69597;BMP180;56802;51.184;-115.558;2022-08-05T00:31:54;86124.60;;;
69597;BMP180;56802;51.184;-115.558;2022-08-05T00:34:43;86156.40;;;
69597;BMP180;56802;51.184;-115.558;2022-08-05T00:37:33;86139.60;;;
69597;BMP180;56802;51.184;-115.558;2022-08-05T00:40:23;86149.80;;;
69597;BMP180;56802;51.184;-115.558;2022-08-05T00:43:01;86142.20;;;
69597;BMP180;56802;51.184;-115.558;2022-08-05T00:45:34;86135.20;;;
69597;BMP180;56802;51.184;-115.558;2022-08-05T00:48:12;86123.00;;;
69597;BMP180;56802;51.184;-115.558;2022-08-05T00:50:44;86127.20;;;
69597;BMP180;56802;51.184;-115.558;2022-08-05T00:53:16;86128.80;;;
69597;BMP180;56802;51.184;-115.558;2022-08-05T00:56:06;86118.80;;;
69597;BMP180;56802;51.184;-115.558;2022-08-05T00:58:37;86120.40;;;
69597;BMP180;56802;51.184;-115.558;2022-08-05T01:01:12;86128.20;;;
69597;BMP180;56802;51.184;-115.558;2022-08-05T01:04:03;86149.00;;;
69597;BMP180;56802;51.184;-115.558;2022-08-05T01:06:42;86172.40;;;
69597;BMP180;56802;51.184;-115.558;2022-08-05T01:09:15;86171.60;;;
69597;BMP180;56802;51.184;-115.558;2022-08-05T01:11:52;86180.00;;;
69597;BMP180;56802;51.184;-115.558;2022-08-05T01:17:16;86190.20;;;
69597;BMP180;56802;51.184;-115.558;2022-08-05T01:20:22;86175.20;;;
69597;BMP180;56802;51.184;-115.558;2022-08-05T01:23:15;86152.40;;;
69597;BMP180;56802;51.184;-115.558;2022-08-05T01:26:17;86143.80;;;
69597;BMP180;56802;51.184;-115.558;2022-08-05T01:29:04;86139.60;;;
69597;BMP180;56802;51.184;-115.558;2022-08-05T01:31:53;86133.80;;;
69597;BMP180;56802;51.184;-115.558;2022-08-05T01:34:33;86124.00;;;
69597;BMP180;56802;51.184;-115.558;2022-08-05T01:37:39;86111.00;;;
69597;BMP180;56802;51.184;-115.558;2022-08-05T01:40:13;86112.20;;;
69597;BMP180;56802;51.184;-115.558;2022-08-05T01:42:46;86119.60;;;
69597;BMP180;56802;51.184;-115.558;2022-08-05T01:45:19;86125.40;;;
69597;BMP180;56802;51.184;-115.558;2022-08-05T01:47:50;86125.00;;;
69597;BMP180;56802;51.184;-115.558;2022-08-05T01:50:51;86127.20;;;
69597;BMP180;56802;51.184;-115.558;2022-08-05T01:53:24;86135.20;;;
69597;BMP180;56802;51.184;-115.558;2022-08-05T01:56:15;86142.20;;;
69597;BMP180;56802;51.184;-115.558;2022-08-05T01:59:14;86142.40;;;
69597;BMP180;56802;51.184;-115.558;2022-08-05T02:01:49;86138.80;;;
69597;BMP180;56802;51.184;-115.558;2022-08-05T02:04:26;86129.80;;;
69597;BMP180;56802;51.184;-115.558;2022-08-05T02:06:58;86121.60;;;
69597;BMP180;56802;51.184;-115.558;2022-08-05T02:09:32;86123.60;;;
69597;BMP180;56802;51.184;-115.558;2022-08-05T02:15:39;86129.20;;;
69597;BMP180;56802;51.184;-115.558;2022-08-05T02:18:28;86130.20;;;
69597;BMP180;56802;51.184;-115.558;2022-08-05T02:21:11;86136.60;;;
69597;BMP180;56802;51.184;-115.558;2022-08-05T02:23:47;86136.80;;;
69597;BMP180;56802;51.184;-115.558;2022-08-05T02:26:26;86139.00;;;
69597;BMP180;56802;51.184;-115.558;2022-08-05T02:28:56;86133.80;;;
69597;BMP180;56802;51.184;-115.558;2022-08-05T02:31:32;86129.80;;;
69597;BMP180;56802;51.184;-115.558;2022-08-05T02:34:09;86130.40;;;
69597;BMP180;56802;51.184;-115.558;2022-08-05T02:36:54;86128.20;;;
69597;BMP180;56802;51.184;-115.558;2022-08-05T02:39:33;86130.20;;;
69597;BMP180;56802;51.184;-115.558;2022-08-05T02:42:08;86136.60;;;
69597;BMP180;56802;51.184;-115.558;2022-08-05T02:44:54;86135.40;;;
69597;BMP180;56802;51.184;-115.558;2022-08-05T02:47:25;86133.60;;;
69597;BMP180;56802;51.184;-115.558;2022-08-05T02:50:15;86127.20;;;
69597;BMP180;56802;51.184;-115.558;2022-08-05T02:52:46;86134.40;;;
69597;BMP180;56802;51.184;-115.558;2022-08-05T02:55:16;86138.60;;;
69597;BMP180;56802;51.184;-115.558;2022-08-05T02:58:06;86140.20;;;
69597;BMP180;56802;51.184;-115.558;2022-08-05T03:00:40;86142.20;;;
69597;BMP180;56802;51.184;-115.558;2022-08-05T03:03:18;86138.80;;;
69597;BMP180;56802;51.184;-115.558;2022-08-05T03:05:51;86143.40;;;
69597;BMP180;56802;51.184;-115.558;2022-08-05T03:08:41;86152.00;;;
69597;BMP180;56802;51.184;-115.558;2022-08-05T03:11:22;86151.20;;;
69597;BMP180;56802;51.184;-115.558;2022-08-05T03:14:11;86157.00;;;
69597;BMP180;56802;51.184;-115.558;2022-08-05T03:16:41;86164.40;;;
69597;BMP180;56802;51.184;-115.558;2022-08-05T03:19:10;86163.60;;;
69597;BMP180;56802;51.184;-115.558;2022-08-05T03:21:59;86173.40;;;
69597;BMP180;56802;51.184;-115.558;2022-08-05T03:24:31;86177.60;;;
69597;BMP180;56802;51.184;-115.558;2022-08-05T03:27:01;86176.60;;;
69597;BMP180;56802;51.184;-115.558;2022-08-05T03:29:33;86180.80;;;
69597;BMP180;56802;51.184;-115.558;2022-08-05T03:32:14;86185.40;;;
69597;BMP180;56802;51.184;-115.558;2022-08-05T03:34:46;86194.40;;;
69597;BMP180;56802;51.184;-115.558;2022-08-05T03:37:19;86195.60;;;
69597;BMP180;56802;51.184;-115.558;2022-08-05T03:39:57;86200.60;;;
69597;BMP180;56802;51.184;-115.558;2022-08-05T03:42:29;86208.40;;;
69597;BMP180;56802;51.184;-115.558;2022-08-05T03:45:08;86209.40;;;
69597;BMP180;56802;51.184;-115.558;2022-08-05T03:47:50;86218.20;;;
69597;BMP180;56802;51.184;-115.558;2022-08-05T03:50:43;86219.40;;;
69597;BMP180;56802;51.184;-115.558;2022-08-05T03:53:51;86217.80;;;
69597;BMP180;56802;51.184;-115.558;2022-08-05T03:56:45;86214.80;;;
69597;BMP180;56802;51.184;-115.558;2022-08-05T03:59:23;86215.40;;;
69597;BMP180;56802;51.184;-115.558;2022-08-05T04:02:14;86214.00;;;
69597;BMP180;56802;51.184;-115.558;2022-08-05T04:05:08;86211.60;;;
69597;BMP180;56802;51.184;-115.558;2022-08-05T04:07:39;86207.80;;;
69597;BMP180;56802;51.184;-115.558;2022-08-05T04:10:26;86214.80;;;
69597;BMP180;56802;51.184;-115.558;2022-08-05T04:13:06;86218.60;;;
69597;BMP180;56802;51.184;-115.558;2022-08-05T04:15:36;86217.40;;;
69597;BMP180;56802;51.184;-115.558;2022-08-05T04:18:23;86214.00;;;
69597;BMP180;56802;51.184;-115.558;2022-08-05T04:20:57;86223.20;;;
69597;BMP180;56802;51.184;-115.558;2022-08-05T04:23:28;86228.40;;;
69597;BMP180;56802;51.184;-115.558;2022-08-05T04:26:17;86225.40;;;
69597;BMP180;56802;51.184;-115.558;2022-08-05T04:28:47;86227.40;;;
69597;BMP180;56802;51.184;-115.558;2022-08-05T04:31:19;86233.80;;;
69597;BMP180;56802;51.184;-115.558;2022-08-05T04:33:54;86236.80;;;
69597;BMP180;56802;51.184;-115.558;2022-08-05T04:36:43;86237.40;;;
69597;BMP180;56802;51.184;-115.558;2022-08-05T04:39:20;86235.60;;;
69597;BMP180;56802;51.184;-115.558;2022-08-05T04:41:49;86235.40;;;
69597;BMP180;56802;51.184;-115.558;2022-08-05T04:44:19;86235.00;;;
69597;BMP180;56802;51.184;-115.558;2022-08-05T04:46:58;86231.00;;;
69597;BMP180;56802;51.184;-115.558;2022-08-05T04:49:39;86232.40;;;
69597;BMP180;56802;51.184;-115.558;2022-08-05T04:52:29;86231.80;;;
69597;BMP180;56802;51.184;-115.558;2022-08-05T04:55:01;86226.20;;;
69597;BMP180;56802;51.184;-115.558;2022-08-05T04:57:44;86229.40;;;
69597;BMP180;56802;51.184;-115.558;2022-08-05T05:00:21;86232.40;;;
69597;BMP180;56802;51.184;-115.558;2022-08-05T05:02:51;86231.20;;;
69597;BMP180;56802;51.184;-115.558;2022-08-05T05:05:20;86233.00;;;
69597;BMP180;56802;51.184;-115.558;2022-08-05T05:08:07;86235.60;;;
69597;BMP180;56802;51.184;-115.558;2022-08-05T05:10:53;86236.60;;;
69597;BMP180;56802;51.184;-115.558;2022-08-05T05:13:23;86239.40;;;
69597;BMP180;56802;51.184;-115.558;2022-08-05T05:15:58;86232.60;;;
69597;BMP180;56802;51.184;-115.558;2022-08-05T05:18:32;86235.60;;;
69597;BMP180;56802;51.184;-115.558;2022-08-05T05:21:02;86227.80;;;
69597;BMP180;56802;51.184;-115.558;2022-08-05T05:23:32;86226.80;;;
69597;BMP180;56802;51.184;-115.558;2022-08-05T05:26:21;86224.80;;;
69597;BMP180;56802;51.184;-115.558;2022-08-05T05:28:59;86228.80;;;
69597;BMP180;56802;51.184;-115.558;2022-08-05T05:31:41;86235.80;;;
69597;BMP180;56802;51.184;-115.558;2022-08-05T05:34:13;86231.40;;;
69597;BMP180;56802;51.184;-115.558;2022-08-05T05:36:47;86238.40;;;
69597;BMP180;56802;51.184;-115.558;2022-08-05T05:39:18;86238.40;;;
69597;BMP180;56802;51.184;-115.558;2022-08-05T05:41:47;86248.00;;;
69597;BMP180;56802;51.184;-115.558;2022-08-05T05:44:21;86248.60;;;
69597;BMP180;56802;51.184;-115.558;2022-08-05T05:47:04;86256.40;;;
69597;BMP180;56802;51.184;-115.558;2022-08-05T05:49:54;86266.20;;;
69597;BMP180;56802;51.184;-115.558;2022-08-05T05:52:29;86268.80;;;
69597;BMP180;56802;51.184;-115.558;2022-08-05T05:55:11;86272.40;;;
69597;BMP180;56802;51.184;-115.558;2022-08-05T05:57:45;86272.80;;;
69597;BMP180;56802;51.184;-115.558;2022-08-05T06:00:21;86276.60;;;
69597;BMP180;56802;51.184;-115.558;2022-08-05T06:03:01;86279.40;;;
69597;BMP180;56802;51.184;-115.558;2022-08-05T06:05:50;86276.80;;;
69597;BMP180;56802;51.184;-115.558;2022-08-05T06:08:22;86278.60;;;
69597;BMP180;56802;51.184;-115.558;2022-08-05T06:11:00;86280.20;;;
69597;BMP180;56802;51.184;-115.558;2022-08-05T06:13:31;86284.00;;;
69597;BMP180;56802;51.184;-115.558;2022-08-05T06:16:17;86289.80;;;
69597;BMP180;56802;51.184;-115.558;2022-08-05T06:18:59;86289.20;;;
69597;BMP180;56802;51.184;-115.558;2022-08-05T06:21:35;86287.80;;;
69597;BMP180;56802;51.184;-115.558;2022-08-05T06:24:09;86283.20;;;
69597;BMP180;56802;51.184;-115.558;2022-08-05T06:26:41;86286.00;;;
69597;BMP180;56802;51.184;-115.558;2022-08-05T06:29:22;86282.80;;;
69597;BMP180;56802;51.184;-115.558;2022-08-05T06:32:12;86285.40;;;
69597;BMP180;56802;51.184;-115.558;2022-08-05T06:34:57;86290.60;;;
69597;BMP180;56802;51.184;-115.558;2022-08-05T06:37:32;86289.60;;;
69597;BMP180;56802;51.184;-115.558;2022-08-05T06:40:21;86289.80;;;
69597;BMP180;56802;51.184;-115.558;2022-08-05T06:42:54;86289.80;;;
69597;BMP180;56802;51.184;-115.558;2022-08-05T06:45:24;86290.20;;;
69597;BMP180;56802;51.184;-115.558;2022-08-05T06:48:14;86295.20;;;
69597;BMP180;56802;51.184;-115.558;2022-08-05T06:51:04;86299.20;;;
69597;BMP180;56802;51.184;-115.558;2022-08-05T06:53:36;86298.60;;;
69597;BMP180;56802;51.184;-115.558;2022-08-05T06:56:07;86300.20;;;
69597;BMP180;56802;51.184;-115.558;2022-08-05T06:58:54;86296.80;;;
69597;BMP180;56802;51.184;-115.558;2022-08-05T07:01:24;86299.40;;;
69597;BMP180;56802;51.184;-115.558;2022-08-05T07:03:59;86296.60;;;
69597;BMP180;56802;51.184;-115.558;2022-08-05T07:06:30;86299.80;;;
69597;BMP180;56802;51.184;-115.558;2022-08-05T07:09:00;86302.20;;;
69597;BMP180;56802;51.184;-115.558;2022-08-05T07:11:32;86300.80;;;
69597;BMP180;56802;51.184;-115.558;2022-08-05T07:14:04;86298.20;;;
69597;BMP180;56802;51.184;-115.558;2022-08-05T07:16:58;86297.80;;;
69597;BMP180;56802;51.184;-115.558;2022-08-05T07:19:50;86290.80;;;
69597;BMP180;56802;51.184;-115.558;2022-08-05T07:22:42;86296.60;;;
69597;BMP180;56802;51.184;-115.558;2022-08-05T07:25:14;86298.00;;;
69597;BMP180;56802;51.184;-115.558;2022-08-05T07:28:03;86298.00;;;
69597;BMP180;56802;51.184;-115.558;2022-08-05T07:30:38;86304.80;;;
69597;BMP180;56802;51.184;-115.558;2022-08-05T07:33:11;86307.80;;;
69597;BMP180;56802;51.184;-115.558;2022-08-05T07:35:45;86310.40;;;
69597;BMP180;56802;51.184;-115.558;2022-08-05T07:38:33;86307.20;;;
69597;BMP180;56802;51.184;-115.558;2022-08-05T07:41:21;86312.20;;;
69597;BMP180;56802;51.184;-115.558;2022-08-05T07:44:11;86312.40;;;
69597;BMP180;56802;51.184;-115.558;2022-08-05T07:46:47;86312.80;;;
69597;BMP180;56802;51.184;-115.558;2022-08-05T07:49:18;86315.00;;;
69597;BMP180;56802;51.184;-115.558;2022-08-05T07:51:48;86312.20;;;
69597;BMP180;56802;51.184;-115.558;2022-08-05T07:54:24;86317.40;;;
69597;BMP180;56802;51.184;-115.558;2022-08-05T07:57:02;86318.80;;;
69597;BMP180;56802;51.184;-115.558;2022-08-05T07:59:52;86322.40;;;
69597;BMP180;56802;51.184;-115.558;2022-08-05T08:02:27;86324.00;;;
69597;BMP180;56802;51.184;-115.558;2022-08-05T08:05:17;86324.40;;;
69597;BMP180;56802;51.184;-115.558;2022-08-05T08:07:46;86325.80;;;
69597;BMP180;56802;51.184;-115.558;2022-08-05T08:10:28;86326.60;;;
69597;BMP180;56802;51.184;-115.558;2022-08-05T08:12:57;86320.40;;;
69597;BMP180;56802;51.184;-115.558;2022-08-05T08:15:28;86330.00;;;
69597;BMP180;56802;51.184;-115.558;2022-08-05T08:18:18;86330.40;;;
69597;BMP180;56802;51.184;-115.558;2022-08-05T08:20:48;86331.60;;;
69597;BMP180;56802;51.184;-115.558;2022-08-05T08:23:30;86331.60;;;
69597;BMP180;56802;51.184;-115.558;2022-08-05T08:26:21;86332.80;;;
69597;BMP180;56802;51.184;-115.558;2022-08-05T08:28:59;86331.80;;;
69597;BMP180;56802;51.184;-115.558;2022-08-05T08:31:50;86331.00;;;
69597;BMP180;56802;51.184;-115.558;2022-08-05T08:34:23;86328.80;;;
69597;BMP180;56802;51.184;-115.558;2022-08-05T08:36:57;86335.80;;;
69597;BMP180;56802;51.184;-115.558;2022-08-05T08:39:32;86342.40;;;
69597;BMP180;56802;51.184;-115.558;2022-08-05T08:42:05;86338.60;;;
69597;BMP180;56802;51.184;-115.558;2022-08-05T08:44:58;86341.40;;;
69597;BMP180;56802;51.184;-115.558;2022-08-05T08:47:50;86350.20;;;
69597;BMP180;56802;51.184;-115.558;2022-08-05T08:50:43;86346.60;;;
69597;BMP180;56802;51.184;-115.558;2022-08-05T08:53:37;86351.20;;;
69597;BMP180;56802;51.184;-115.558;2022-08-05T08:56:12;86355.60;;;
69597;BMP180;56802;51.184;-115.558;2022-08-05T08:58:42;86353.20;;;
69597;BMP180;56802;51.184;-115.558;2022-08-05T09:01:16;86359.60;;;
69597;BMP180;56802;51.184;-115.558;2022-08-05T09:03:52;86358.40;;;
69597;BMP180;56802;51.184;-115.558;2022-08-05T09:06:27;86361.60;;;
69597;BMP180;56802;51.184;-115.558;2022-08-05T09:09:01;86362.00;;;
69597;BMP180;56802;51.184;-115.558;2022-08-05T09:11:33;86364.40;;;
69597;BMP180;56802;51.184;-115.558;2022-08-05T09:14:20;86357.80;;;
69597;BMP180;56802;51.184;-115.558;2022-08-05T09:17:11;86362.60;;;
69597;BMP180;56802;51.184;-115.558;2022-08-05T09:20:02;86361.00;;;
69597;BMP180;56802;51.184;-115.558;2022-08-05T09:25:51;86369.20;;;
69597;BMP180;56802;51.184;-115.558;2022-08-05T09:28:38;86367.00;;;
69597;BMP180;56802;51.184;-115.558;2022-08-05T09:31:14;86371.80;;;
69597;BMP180;56802;51.184;-115.558;2022-08-05T09:34:06;86377.80;;;
69597;BMP180;56802;51.184;-115.558;2022-08-05T09:36:46;86379.60;;;
69597;BMP180;56802;51.184;-115.558;2022-08-05T09:39:23;86381.40;;;
69597;BMP180;56802;51.184;-115.558;2022-08-05T09:42:21;86381.20;;;
69597;BMP180;56802;51.184;-115.558;2022-08-05T09:44:55;86380.80;;;
69597;BMP180;56802;51.184;-115.558;2022-08-05T09:47:44;86379.80;;;
69597;BMP180;56802;51.184;-115.558;2022-08-05T09:50:35;86379.80;;;
69597;BMP180;56802;51.184;-115.558;2022-08-05T09:53:11;86385.00;;;
69597;BMP180;56802;51.184;-115.558;2022-08-05T09:55:59;86385.20;;;
69597;BMP180;56802;51.184;-115.558;2022-08-05T09:58:39;86381.80;;;
69597;BMP180;56802;51.184;-115.558;2022-08-05T10:01:12;86384.40;;;
69597;BMP180;56802;51.184;-115.558;2022-08-05T10:04:08;86384.00;;;
69597;BMP180;56802;51.184;-115.558;2022-08-05T10:06:56;86383.40;;;
69597;BMP180;56802;51.184;-115.558;2022-08-05T10:09:32;86383.80;;;
69597;BMP180;56802;51.184;-115.558;2022-08-05T10:12:12;86381.80;;;
69597;BMP180;56802;51.184;-115.558;2022-08-05T10:15:40;86388.00;;;
69597;BMP180;56802;51.184;-115.558;2022-08-05T10:18:16;86389.00;;;
69597;BMP180;56802;51.184;-115.558;2022-08-05T10:20:55;86394.00;;;
69597;BMP180;56802;51.184;-115.558;2022-08-05T10:23:35;86394.60;;;
69597;BMP180;56802;51.184;-115.558;2022-08-05T10:26:24;86394.80;;;
69597;BMP180;56802;51.184;-115.558;2022-08-05T10:29:00;86395.40;;;
69597;BMP180;56802;51.184;-115.558;2022-08-05T10:31:31;86394.80;;;
69597;BMP180;56802;51.184;-115.558;2022-08-05T10:34:22;86392.80;;;
69597;BMP180;56802;51.184;-115.558;2022-08-05T10:36:56;86398.00;;;
69597;BMP180;56802;51.184;-115.558;2022-08-05T10:39:34;86406.00;;;
69597;BMP180;56802;51.184;-115.558;2022-08-05T10:42:27;86401.00;;;
69597;BMP180;56802;51.184;-115.558;2022-08-05T10:45:04;86403.20;;;
69597;BMP180;56802;51.184;-115.558;2022-08-05T10:47:50;86410.40;;;
69597;BMP180;56802;51.184;-115.558;2022-08-05T10:51:19;86408.80;;;
69597;BMP180;56802;51.184;-115.558;2022-08-05T10:53:59;86411.00;;;
69597;BMP180;56802;51.184;-115.558;2022-08-05T10:56:51;86412.40;;;
69597;BMP180;56802;51.184;-115.558;2022-08-05T10:59:30;86410.80;;;
69597;BMP180;56802;51.184;-115.558;2022-08-05T11:02:19;86418.60;;;
69597;BMP180;56802;51.184;-115.558;2022-08-05T11:05:09;86422.80;;;
69597;BMP180;56802;51.184;-115.558;2022-08-05T11:08:06;86420.20;;;
69597;BMP180;56802;51.184;-115.558;2022-08-05T11:11:34;86424.40;;;
69597;BMP180;56802;51.184;-115.558;2022-08-05T11:14:27;86426.00;;;
69597;BMP180;56802;51.184;-115.558;2022-08-05T11:20:40;86430.80;;;
69597;BMP180;56802;51.184;-115.558;2022-08-05T11:26:24;86431.60;;;
69597;BMP180;56802;51.184;-115.558;2022-08-05T11:29:01;86432.40;;;
69597;BMP180;56802;51.184;-115.558;2022-08-05T11:31:42;86435.20;;;
69597;BMP180;56802;51.184;-115.558;2022-08-05T11:34:39;86438.40;;;
69597;BMP180;56802;51.184;-115.558;2022-08-05T11:40:57;86447.80;;;
69597;BMP180;56802;51.184;-115.558;2022-08-05T11:44:04;86448.80;;;
69597;BMP180;56802;51.184;-115.558;2022-08-05T11:47:00;86450.20;;;
69597;BMP180;56802;51.184;-115.558;2022-08-05T11:49:42;86451.80;;;
69597;BMP180;56802;51.184;-115.558;2022-08-05T11:52:28;86454.00;;;
69597;BMP180;56802;51.184;-115.558;2022-08-05T11:54:58;86453.80;;;
69597;BMP180;56802;51.184;-115.558;2022-08-05T11:57:37;86455.80;;;
69597;BMP180;56802;51.184;-115.558;2022-08-05T12:00:30;86462.60;;;
69597;BMP180;56802;51.184;-115.558;2022-08-05T12:03:21;86470.40;;;
69597;BMP180;56802;51.184;-115.558;2022-08-05T12:06:04;86468.80;;;
69597;BMP180;56802;51.184;-115.558;2022-08-05T12:08:44;86474.00;;;
69597;BMP180;56802;51.184;-115.558;2022-08-05T12:11:36;86471.20;;;
69597;BMP180;56802;51.184;-115.558;2022-08-05T12:14:08;86481.40;;;
69597;BMP180;56802;51.184;-115.558;2022-08-05T12:16:40;86484.80;;;
69597;BMP180;56802;51.184;-115.558;2022-08-05T12:19:15;86490.60;;;
69597;BMP180;56802;51.184;-115.558;2022-08-05T12:22:05;86491.00;;;
69597;BMP180;56802;51.184;-115.558;2022-08-05T12:24:42;86489.80;;;
69597;BMP180;56802;51.184;-115.558;2022-08-05T12:27:27;86491.20;;;
69597;BMP180;56802;51.184;-115.558;2022-08-05T12:30:07;86493.00;;;
69597;BMP180;56802;51.184;-115.558;2022-08-05T12:32:47;86499.00;;;
69597;BMP180;56802;51.184;-115.558;2022-08-05T12:35:23;86501.20;;;
69597;BMP180;56802;51.184;-115.558;2022-08-05T12:38:06;86500.20;;;
69597;BMP180;56802;51.184;-115.558;2022-08-05T12:40:37;86510.80;;;
69597;BMP180;56802;51.184;-115.558;2022-08-05T12:43:11;86508.00;;;
69597;BMP180;56802;51.184;-115.558;2022-08-05T12:45:55;86516.20;;;
69597;BMP180;56802;51.184;-115.558;2022-08-05T12:48:25;86515.60;;;
69597;BMP180;56802;51.184;-115.558;2022-08-05T12:51:15;86521.80;;;
69597;BMP180;56802;51.184;-115.558;2022-08-05T12:54:07;86517.20;;;
69597;BMP180;56802;51.184;-115.558;2022-08-05T12:56:48;86518.40;;;
69597;BMP180;56802;51.184;-115.558;2022-08-05T12:59:25;86516.80;;;
69597;BMP180;56802;51.184;-115.558;2022-08-05T13:02:25;86518.00;;;
69597;BMP180;56802;51.184;-115.558;2022-08-05T13:04:57;86523.40;;;
69597;BMP180;56802;51.184;-115.558;2022-08-05T13:07:27;86525.20;;;
69597;BMP180;56802;51.184;-115.558;2022-08-05T13:10:17;86528.00;;;
69597;BMP180;56802;51.184;-115.558;2022-08-05T13:12:47;86529.60;;;
69597;BMP180;56802;51.184;-115.558;2022-08-05T13:15:29;86529.80;;;
69597;BMP180;56802;51.184;-115.558;2022-08-05T13:18:08;86535.00;;;
69597;BMP180;56802;51.184;-115.558;2022-08-05T13:20:47;86530.00;;;
69597;BMP180;56802;51.184;-115.558;2022-08-05T13:23:17;86533.20;;;
69597;BMP180;56802;51.184;-115.558;2022-08-05T13:25:50;86533.20;;;
69597;BMP180;56802;51.184;-115.558;2022-08-05T13:28:28;86537.00;;;
69597;BMP180;56802;51.184;-115.558;2022-08-05T13:30:59;86543.80;;;
69597;BMP180;56802;51.184;-115.558;2022-08-05T13:33:40;86543.60;;;
69597;BMP180;56802;51.184;-115.558;2022-08-05T13:36:30;86543.40;;;
69597;BMP180;56802;51.184;-115.558;2022-08-05T13:39:02;86546.20;;;
69597;BMP180;56802;51.184;-115.558;2022-08-05T13:41:50;86549.60;;;
69597;BMP180;56802;51.184;-115.558;2022-08-05T13:44:22;86548.80;;;
69597;BMP180;56802;51.184;-115.558;2022-08-05T13:46:52;86551.40;;;
69597;BMP180;56802;51.184;-115.558;2022-08-05T13:49:36;86557.80;;;
69597;BMP180;56802;51.184;-115.558;2022-08-05T13:52:24;86559.80;;;
69597;BMP180;56802;51.184;-115.558;2022-08-05T13:54:57;86559.00;;;
69597;BMP180;56802;51.184;-115.558;2022-08-05T13:57:27;86565.20;;;
69597;BMP180;56802;51.184;-115.558;2022-08-05T14:00:17;86573.60;;;
69597;BMP180;56802;51.184;-115.558;2022-08-05T14:02:56;86568.20;;;
69597;BMP180;56802;51.184;-115.558;2022-08-05T14:05:28;86577.40;;;
69597;BMP180;56802;51.184;-115.558;2022-08-05T14:08:18;86579.00;;;
69597;BMP180;56802;51.184;-115.558;2022-08-05T14:10:59;86576.00;;;
69597;BMP180;56802;51.184;-115.558;2022-08-05T14:13:48;86580.80;;;
69597;BMP180;56802;51.184;-115.558;2022-08-05T14:16:24;86582.00;;;
69597;BMP180;56802;51.184;-115.558;2022-08-05T14:18:53;86584.20;;;
69597;BMP180;56802;51.184;-115.558;2022-08-05T14:21:23;86590.20;;;
69597;BMP180;56802;51.184;-115.558;2022-08-05T14:24:12;86591.60;;;
69597;BMP180;56802;51.184;-115.558;2022-08-05T14:26:46;86596.80;;;
69597;BMP180;56802;51.184;-115.558;2022-08-05T14:29:35;86601.20;;;
69597;BMP180;56802;51.184;-115.558;2022-08-05T14:32:05;86601.40;;;
69597;BMP180;56802;51.184;-115.558;2022-08-05T14:34:43;86597.20;;;
69597;BMP180;56802;51.184;-115.558;2022-08-05T14:37:13;86598.40;;;
69597;BMP180;56802;51.184;-115.558;2022-08-05T14:39:42;86599.20;;;
69597;BMP180;56802;51.184;-115.558;2022-08-05T14:42:23;86600.40;;;
69597;BMP180;56802;51.184;-115.558;2022-08-05T14:44:52;86599.80;;;
69597;BMP180;56802;51.184;-115.558;2022-08-05T14:47:23;86601.60;;;
69597;BMP180;56802;51.184;-115.558;2022-08-05T14:50:13;86603.40;;;
69597;BMP180;56802;51.184;-115.558;2022-08-05T14:52:46;86606.00;;;
69597;BMP180;56802;51.184;-115.558;2022-08-05T14:55:26;86603.80;;;
69597;BMP180;56802;51.184;-115.558;2022-08-05T14:58:10;86600.80;;;
69597;BMP180;56802;51.184;-115.558;2022-08-05T15:00:41;86604.40;;;
69597;BMP180;56802;51.184;-115.558;2022-08-05T15:03:28;86600.60;;;
69597;BMP180;56802;51.184;-115.558;2022-08-05T15:06:06;86601.20;;;
69597;BMP180;56802;51.184;-115.558;2022-08-05T15:08:45;86600.80;;;
69597;BMP180;56802;51.184;-115.558;2022-08-05T15:11:32;86594.60;;;
69597;BMP180;56802;51.184;-115.558;2022-08-05T15:14:20;86591.40;;;
69597;BMP180;56802;51.184;-115.558;2022-08-05T15:17:10;86599.40;;;
69597;BMP180;56802;51.184;-115.558;2022-08-05T15:19:59;86601.40;;;
69597;BMP180;56802;51.184;-115.558;2022-08-05T15:22:28;86599.60;;;
69597;BMP180;56802;51.184;-115.558;2022-08-05T15:24:57;86594.40;;;
69597;BMP180;56802;51.184;-115.558;2022-08-05T15:27:38;86591.40;;;
69597;BMP180;56802;51.184;-115.558;2022-08-05T15:30:19;86604.20;;;
69597;BMP180;56802;51.184;-115.558;2022-08-05T15:32:49;86599.40;;;
69597;BMP180;56802;51.184;-115.558;2022-08-05T15:35:18;86596.40;;;
69597;BMP180;56802;51.184;-115.558;2022-08-05T15:37:48;86604.80;;;
69597;BMP180;56802;51.184;-115.558;2022-08-05T15:40:38;86601.00;;;
69597;BMP180;56802;51.184;-115.558;2022-08-05T15:43:28;86606.40;;;
69597;BMP180;56802;51.184;-115.558;2022-08-05T15:46:12;86611.60;;;
69597;BMP180;56802;51.184;-115.558;2022-08-05T15:48:44;86614.80;;;
69597;BMP180;56802;51.184;-115.558;2022-08-05T15:51:27;86611.00;;;
69597;BMP180;56802;51.184;-115.558;2022-08-05T15:54:16;86604.00;;;
69597;BMP180;56802;51.184;-115.558;2022-08-05T15:57:01;86605.40;;;
69597;BMP180;56802;51.184;-115.558;2022-08-05T15:59:35;86611.00;;;
69597;BMP180;56802;51.184;-115.558;2022-08-05T16:02:06;86609.60;;;
69597;BMP180;56802;51.184;-115.558;2022-08-05T16:04:47;86618.00;;;
69597;BMP180;56802;51.184;-115.558;2022-08-05T16:07:16;86608.80;;;
69597;BMP180;56802;51.184;-115.558;2022-08-05T16:09:49;86611.80;;;